Time;durP1;ratioP1;P1;durP2;ratioP2;P2;SDS_P1;SDS_P2;PMS_P1;PMS_P2;Temp;Humidity;BMP_temperature;BMP_pressure;BME280_temperature;BME280_humidity;BME280_pressure;Samples;Min_cycle;Max_cycle;Signal;HPM_P1;HPM_P2
2022/10/22 00:02:07;;;;;;;1.00;0.60;;;15.10;99.90;;;;;;5017153;28;20188;-57
2022/10/22 00:04:34;;;;;;;1.17;0.60;;;15.10;99.90;;;;;;5012475;28;20219;-56
2022/10/22 00:07:00;;;;;;;0.90;0.50;;;15.10;99.90;;;;;;5007621;28;20555;-57
2022/10/22 00:09:25;;;;;;;1.33;0.90;;;15.10;99.90;;;;;;5010210;28;20198;-56
2022/10/22 00:11:53;;;;;;;2.50;0.80;;;15.30;99.90;;;;;;5009924;28;20474;-57
2022/10/22 00:14:19;;;;;;;1.98;0.70;;;15.20;99.90;;;;;;5007249;28;20229;-56
2022/10/22 00:16:44;;;;;;;1.00;0.60;;;15.10;99.90;;;;;;5010495;28;20648;-57
2022/10/22 00:19:12;;;;;;;0.70;0.60;;;14.90;99.90;;;;;;5009677;28;20183;-56
2022/10/22 00:21:38;;;;;;;1.20;0.77;;;15.20;99.90;;;;;;5003584;28;20191;-57
2022/10/22 00:24:04;;;;;;;0.90;0.70;;;15.30;99.90;;;;;;5010349;28;20213;-56
2022/10/22 00:26:30;;;;;;;0.80;0.70;;;15.20;99.90;;;;;;5009999;28;20187;-57
2022/10/22 00:28:56;;;;;;;0.87;0.73;;;15.10;99.90;;;;;;5004147;28;20465;-57
2022/10/22 00:31:21;;;;;;;0.80;0.63;;;15.00;99.90;;;;;;5010519;28;20289;-57
2022/10/22 00:33:47;;;;;;;1.37;1.23;;;15.00;99.90;;;;;;5000218;28;20659;-56
2022/10/22 00:36:14;;;;;;;1.67;0.77;;;15.30;99.90;;;;;;5006053;28;20250;-57
2022/10/22 00:38:40;;;;;;;2.95;0.85;;;15.00;99.90;;;;;;5009072;28;20265;-56
2022/10/22 00:41:05;;;;;;;0.80;0.60;;;14.90;99.90;;;;;;5006338;28;20290;-57
2022/10/22 00:43:32;;;;;;;2.80;0.80;;;15.10;99.90;;;;;;4996831;28;20191;-57
2022/10/22 00:45:57;;;;;;;0.70;0.63;;;15.00;99.90;;;;;;5009655;28;20440;-57
2022/10/22 00:48:33;;;;;;;1.20;0.60;;;15.10;99.90;;;;;;5011988;28;20191;-57
2022/10/22 00:51:06;;;;;;;0.60;0.60;;;15.20;99.90;;;;;;5010228;28;20225;-58
2022/10/22 00:53:35;;;;;;;1.52;0.90;;;14.90;99.90;;;;;;5007444;28;20194;-57
2022/10/22 00:56:02;;;;;;;2.60;0.65;;;14.90;99.90;;;;;;5009458;28;20197;-57
2022/10/22 00:58:33;;;;;;;0.70;0.63;;;15.30;99.90;;;;;;5009350;28;20265;-57
2022/10/22 01:00:59;;;;;;;3.90;0.80;;;15.10;99.90;;;;;;4998698;28;20603;-57
2022/10/22 01:03:25;;;;;;;1.57;0.73;;;15.10;99.90;;;;;;5009218;28;20245;-58
2022/10/22 01:05:58;;;;;;;2.63;0.70;;;14.80;99.90;;;;;;5011410;28;20974;-56
2022/10/22 01:08:43;;;;;;;0.70;0.70;;;14.90;99.90;;;;;;5009849;28;20596;-57
2022/10/22 01:11:26;;;;;;;1.00;0.82;;;15.00;99.90;;;;;;5009615;28;20713;-58
2022/10/22 01:14:15;;;;;;;1.23;0.70;;;14.90;99.90;;;;;;5012048;28;20214;-58
2022/10/22 01:16:56;;;;;;;1.20;0.70;;;14.90;99.90;;;;;;5009010;28;20194;-58
2022/10/22 01:19:31;;;;;;;0.90;0.70;;;14.80;99.90;;;;;;5017723;28;20186;-57
2022/10/22 01:22:26;;;;;;;0.80;0.60;;;14.90;99.90;;;;;;5011326;28;20195;-58
2022/10/22 01:25:07;;;;;;;1.10;0.73;;;14.90;99.90;;;;;;5001131;28;20210;-57
2022/10/22 01:27:56;;;;;;;1.08;0.75;;;14.90;99.90;;;;;;5013322;28;20182;-58
2022/10/22 01:30:23;;;;;;;1.98;0.70;;;15.20;99.90;;;;;;5008324;28;20191;-57
2022/10/22 01:32:52;;;;;;;2.97;1.27;;;15.00;99.90;;;;;;5012218;28;20187;-57
2022/10/22 01:35:26;;;;;;;2.30;0.90;;;15.00;99.90;;;;;;5014553;28;20621;-56
2022/10/22 01:37:55;;;;;;;1.50;0.80;;;14.90;99.90;;;;;;5013076;28;20207;-57
2022/10/22 01:40:22;;;;;;;1.40;0.70;;;14.60;99.90;;;;;;5013230;28;20175;-55
2022/10/22 01:42:59;;;;;;;1.98;1.00;;;14.80;99.90;;;;;;5015921;28;20186;-57
2022/10/22 01:45:27;;;;;;;1.15;0.65;;;15.00;99.90;;;;;;5014089;28;20209;-57
2022/10/22 01:48:01;;;;;;;1.33;0.80;;;14.80;99.90;;;;;;5017594;28;20241;-57
2022/10/22 01:50:34;;;;;;;0.80;0.70;;;14.60;99.90;;;;;;5011182;28;20198;-57
2022/10/22 01:53:09;;;;;;;0.70;0.70;;;14.70;99.90;;;;;;5012700;28;20667;-57
2022/10/22 01:56:12;;;;;;;1.80;1.10;;;14.70;99.90;;;;;;4998116;28;20264;-58
2022/10/22 01:58:41;;;;;;;2.15;0.93;;;14.90;99.90;;;;;;4990172;28;20622;-58
2022/10/22 02:01:25;;;;;;;1.95;0.73;;;14.60;99.90;;;;;;5007792;28;20210;-57
2022/10/22 02:04:06;;;;;;;1.00;0.80;;;14.80;99.90;;;;;;5012177;28;20210;-57
2022/10/22 02:06:35;;;;;;;2.25;0.80;;;14.70;99.90;;;;;;5009902;28;20197;-58
2022/10/22 02:09:02;;;;;;;1.15;1.02;;;15.00;99.90;;;;;;4997552;28;20189;-58
2022/10/22 02:11:29;;;;;;;1.73;0.80;;;14.60;99.90;;;;;;5017086;28;20211;-57
2022/10/22 02:14:00;;;;;;;0.80;0.80;;;14.80;99.90;;;;;;5011471;28;20222;-58
2022/10/22 02:16:40;;;;;;;1.52;1.08;;;14.90;99.90;;;;;;5012554;28;20182;-57
2022/10/22 02:19:16;;;;;;;1.15;0.80;;;14.80;99.90;;;;;;5004705;28;20183;-57
2022/10/22 02:21:42;;;;;;;1.40;0.70;;;14.70;99.90;;;;;;5007334;28;20237;-58
2022/10/22 02:24:08;;;;;;;1.27;0.60;;;15.00;99.90;;;;;;5012229;28;20290;-57
2022/10/22 02:26:40;;;;;;;0.77;0.60;;;14.80;99.90;;;;;;5012090;28;20267;-56
2022/10/22 02:29:14;;;;;;;1.00;0.80;;;15.00;99.90;;;;;;5005662;28;20647;-57
2022/10/22 02:31:43;;;;;;;1.00;0.80;;;15.00;99.90;;;;;;4996342;28;20206;-58
2022/10/22 02:34:14;;;;;;;0.90;0.70;;;15.10;99.90;;;;;;5013246;28;20198;-57
2022/10/22 02:36:41;;;;;;;1.05;0.95;;;14.90;99.90;;;;;;5010658;28;20210;-57
2022/10/22 02:39:09;;;;;;;2.38;0.80;;;14.90;99.90;;;;;;5008161;28;20237;-57
2022/10/22 02:41:36;;;;;;;1.17;1.08;;;14.90;99.90;;;;;;5012336;28;20183;-57
2022/10/22 02:44:09;;;;;;;0.93;0.70;;;15.10;99.90;;;;;;5006939;28;20203;-55
2022/10/22 02:46:36;;;;;;;0.88;0.60;;;14.90;99.90;;;;;;4996475;28;20655;-57
2022/10/22 02:49:04;;;;;;;7.63;0.90;;;14.80;99.90;;;;;;5011160;28;20218;-57
2022/10/22 02:51:29;;;;;;;2.05;0.73;;;14.80;99.90;;;;;;5007467;28;20310;-57
2022/10/22 02:53:55;;;;;;;0.73;0.70;;;15.00;99.90;;;;;;5013129;28;20233;-57
2022/10/22 02:56:21;;;;;;;1.00;0.70;;;15.00;99.90;;;;;;5014375;28;20494;-57
2022/10/22 02:58:47;;;;;;;1.10;0.70;;;14.90;99.90;;;;;;5018140;28;20240;-57
2022/10/22 03:01:13;;;;;;;1.37;0.70;;;14.90;99.90;;;;;;5016640;28;20711;-57
2022/10/22 03:03:39;;;;;;;2.97;0.83;;;14.90;99.90;;;;;;5012735;28;20858;-57
2022/10/22 03:06:04;;;;;;;1.00;0.70;;;14.80;99.90;;;;;;5012579;28;20190;-57
2022/10/22 03:08:30;;;;;;;0.70;0.67;;;14.90;99.90;;;;;;5015842;28;20257;-57
2022/10/22 03:10:56;;;;;;;0.90;0.70;;;14.80;99.90;;;;;;5014635;28;20547;-58
2022/10/22 03:13:21;;;;;;;1.50;0.73;;;15.20;99.90;;;;;;5003094;28;20201;-57
2022/10/22 03:15:49;;;;;;;1.03;0.93;;;15.10;99.90;;;;;;5010600;28;20202;-57
2022/10/22 03:18:16;;;;;;;4.70;1.15;;;14.90;99.90;;;;;;5011749;28;20270;-57
2022/10/22 03:20:42;;;;;;;0.98;0.88;;;14.90;99.90;;;;;;5007870;28;20199;-57
2022/10/22 03:23:10;;;;;;;1.35;0.60;;;15.00;99.90;;;;;;5013681;28;20212;-57
2022/10/22 03:25:39;;;;;;;0.80;0.80;;;15.00;99.90;;;;;;5017562;28;20206;-57
2022/10/22 03:28:07;;;;;;;1.48;0.85;;;14.90;99.90;;;;;;5009229;28;20635;-57
2022/10/22 03:30:32;;;;;;;0.70;0.70;;;15.10;99.90;;;;;;5011217;28;20197;-57
2022/10/22 03:32:58;;;;;;;0.80;0.67;;;15.00;99.90;;;;;;5012857;28;20190;-57
2022/10/22 03:35:25;;;;;;;0.85;0.70;;;15.00;99.90;;;;;;5014757;28;20241;-57
2022/10/22 03:37:51;;;;;;;1.25;0.90;;;15.00;99.90;;;;;;5008523;28;20213;-58
2022/10/22 03:40:18;;;;;;;0.70;0.60;;;15.10;99.90;;;;;;5006664;28;20810;-58
2022/10/22 03:42:44;;;;;;;1.42;0.80;;;15.10;99.90;;;;;;5010295;28;20846;-58
2022/10/22 03:45:10;;;;;;;0.90;0.83;;;15.20;99.90;;;;;;5012342;28;20261;-57
2022/10/22 03:47:36;;;;;;;1.55;0.80;;;15.00;99.90;;;;;;5010160;28;20194;-57
2022/10/22 03:50:02;;;;;;;2.80;0.80;;;15.20;99.90;;;;;;5011516;28;20237;-54
2022/10/22 03:52:33;;;;;;;1.48;0.90;;;15.10;99.90;;;;;;5010525;28;20574;-57
2022/10/22 03:55:01;;;;;;;1.55;1.20;;;15.00;99.90;;;;;;5010887;28;20245;-57
2022/10/22 03:57:27;;;;;;;0.82;0.73;;;15.20;99.90;;;;;;5014223;28;20172;-57
2022/10/22 03:59:52;;;;;;;0.80;0.70;;;15.20;99.90;;;;;;5013868;28;20529;-58
2022/10/22 04:02:18;;;;;;;0.70;0.60;;;14.90;99.90;;;;;;5011970;28;20464;-57
2022/10/22 04:04:44;;;;;;;1.37;0.80;;;15.20;99.90;;;;;;5011235;28;20218;-58
2022/10/22 04:07:09;;;;;;;1.83;0.80;;;15.00;99.90;;;;;;5008344;28;20191;-57
2022/10/22 04:09:36;;;;;;;1.37;0.70;;;15.20;99.90;;;;;;5002364;28;20613;-57
2022/10/22 04:12:04;;;;;;;1.10;0.80;;;15.00;99.90;;;;;;5015866;28;20242;-57
2022/10/22 04:14:29;;;;;;;1.17;0.85;;;14.60;99.90;;;;;;4998068;28;20199;-57
2022/10/22 04:16:55;;;;;;;2.00;0.93;;;14.90;99.90;;;;;;5007108;28;20189;-56
2022/10/22 04:19:21;;;;;;;0.80;0.80;;;14.90;99.90;;;;;;5007477;28;20188;-57
2022/10/22 04:21:47;;;;;;;2.00;0.80;;;15.00;99.90;;;;;;5002283;28;20194;-57
2022/10/22 04:24:13;;;;;;;3.63;1.10;;;14.90;99.90;;;;;;5015621;28;20212;-58
2022/10/22 04:26:38;;;;;;;1.42;0.80;;;14.90;99.90;;;;;;5014872;28;20214;-57
2022/10/22 04:29:07;;;;;;;1.93;0.80;;;15.00;99.90;;;;;;4991921;28;20687;-57
2022/10/22 04:31:33;;;;;;;2.97;0.80;;;15.00;99.90;;;;;;4997990;28;20207;-56
2022/10/22 04:34:00;;;;;;;2.53;0.90;;;14.70;99.90;;;;;;5007664;28;20208;-57
2022/10/22 04:36:26;;;;;;;2.53;0.80;;;14.90;99.90;;;;;;5005770;28;20480;-57
2022/10/22 04:38:54;;;;;;;1.33;0.90;;;14.90;99.90;;;;;;4995868;28;20240;-58
2022/10/22 04:41:23;;;;;;;0.80;0.80;;;14.90;99.90;;;;;;5009252;28;20191;-58
2022/10/22 04:43:49;;;;;;;1.25;0.80;;;14.70;99.90;;;;;;5004226;28;20211;-55
2022/10/22 04:46:16;;;;;;;2.28;0.70;;;14.70;99.90;;;;;;5014189;28;20232;-57
2022/10/22 04:48:44;;;;;;;1.92;0.80;;;14.80;99.90;;;;;;5012654;28;20187;-56
2022/10/22 04:51:13;;;;;;;0.93;0.82;;;14.80;99.90;;;;;;5012916;28;20668;-57
2022/10/22 04:53:41;;;;;;;0.65;0.60;;;14.50;99.90;;;;;;5013262;28;20206;-57
2022/10/22 04:56:20;;;;;;;1.02;0.77;;;14.90;99.90;;;;;;5018780;28;20309;-56
2022/10/22 04:59:04;;;;;;;0.80;0.70;;;14.70;99.90;;;;;;5008598;28;20313;-56
2022/10/22 05:01:35;;;;;;;1.90;0.75;;;14.60;99.90;;;;;;5019053;28;20248;-56
2022/10/22 05:04:02;;;;;;;1.08;0.60;;;14.70;99.90;;;;;;5016624;28;20199;-57
2022/10/22 05:06:29;;;;;;;1.15;0.70;;;14.60;99.90;;;;;;5005003;28;20206;-57
2022/10/22 05:08:58;;;;;;;1.50;0.70;;;14.70;99.90;;;;;;5012241;28;20249;-56
2022/10/22 05:11:29;;;;;;;1.55;0.65;;;14.70;99.90;;;;;;5010150;28;20254;-56
2022/10/22 05:13:56;;;;;;;1.88;0.90;;;14.90;99.90;;;;;;5004319;28;20212;-57
2022/10/22 05:16:22;;;;;;;1.90;0.80;;;14.50;99.90;;;;;;4990944;28;20230;-57
2022/10/22 05:18:48;;;;;;;1.35;0.90;;;14.50;99.90;;;;;;5012378;28;20214;-56
2022/10/22 05:21:17;;;;;;;1.43;0.80;;;14.60;99.90;;;;;;5011812;28;20703;-57
2022/10/22 05:23:44;;;;;;;1.10;0.70;;;14.50;99.90;;;;;;5005996;28;20751;-56
2022/10/22 05:26:12;;;;;;;1.50;0.77;;;14.60;99.90;;;;;;5008582;28;20190;-57
2022/10/22 05:28:37;;;;;;;1.30;0.80;;;14.70;99.90;;;;;;5000327;28;20566;-57
2022/10/22 05:31:05;;;;;;;0.60;0.60;;;14.60;99.90;;;;;;5010406;28;20207;-56
2022/10/22 05:33:32;;;;;;;4.03;0.70;;;14.90;99.90;;;;;;5006960;28;20500;-57
2022/10/22 05:35:58;;;;;;;1.00;0.60;;;14.80;99.90;;;;;;5013469;28;20183;-57
2022/10/22 05:38:24;;;;;;;0.70;0.63;;;14.70;99.90;;;;;;5010484;28;20179;-57
2022/10/22 05:41:04;;;;;;;0.70;0.70;;;14.90;99.90;;;;;;5009824;28;20187;-57
2022/10/22 05:43:30;;;;;;;1.83;0.70;;;14.70;99.90;;;;;;5009827;28;20178;-57
2022/10/22 05:46:00;;;;;;;1.88;0.88;;;14.80;99.90;;;;;;5011087;28;20567;-57
2022/10/22 05:48:26;;;;;;;1.00;0.77;;;14.60;99.90;;;;;;4999909;28;20186;-57
2022/10/22 05:50:51;;;;;;;1.00;0.70;;;14.70;99.90;;;;;;5010256;28;20181;-57
2022/10/22 05:53:18;;;;;;;2.27;0.80;;;14.80;99.90;;;;;;5006491;28;20228;-57
2022/10/22 05:55:43;;;;;;;1.33;0.60;;;14.90;99.90;;;;;;5010098;28;20270;-57
2022/10/22 05:58:10;;;;;;;0.97;0.60;;;14.90;99.90;;;;;;5008313;28;20622;-57
2022/10/22 06:00:36;;;;;;;1.92;0.75;;;14.90;99.90;;;;;;5009042;28;20179;-57
2022/10/22 06:03:02;;;;;;;1.60;0.80;;;15.10;99.90;;;;;;5012828;28;20679;-61
2022/10/22 06:05:27;;;;;;;0.73;0.73;;;15.00;99.90;;;;;;5011669;28;20224;-56
2022/10/22 06:07:54;;;;;;;1.20;0.67;;;15.00;99.90;;;;;;5006609;28;20179;-55
2022/10/22 06:10:22;;;;;;;3.35;0.80;;;14.90;99.90;;;;;;5008986;28;21013;-59
2022/10/22 06:12:48;;;;;;;2.15;0.77;;;14.90;99.90;;;;;;5010072;28;20610;-58
2022/10/22 06:15:17;;;;;;;1.30;0.85;;;14.90;99.90;;;;;;5010815;28;20668;-59
2022/10/22 06:17:44;;;;;;;1.38;0.93;;;15.10;99.90;;;;;;5010440;28;20182;-59
2022/10/22 06:20:11;;;;;;;1.00;0.70;;;14.90;99.90;;;;;;5009129;28;20213;-59
2022/10/22 06:22:37;;;;;;;2.55;1.10;;;15.00;99.90;;;;;;5010836;28;20188;-56
2022/10/22 06:25:05;;;;;;;2.80;1.00;;;15.00;99.90;;;;;;5010754;28;20226;-56
2022/10/22 06:27:30;;;;;;;1.27;0.70;;;15.00;99.90;;;;;;5009112;28;20209;-56
2022/10/22 06:29:56;;;;;;;1.73;0.70;;;15.10;99.90;;;;;;5010831;28;20187;-56
2022/10/22 06:32:21;;;;;;;0.83;0.60;;;15.20;99.90;;;;;;5008174;28;20213;-58
2022/10/22 06:34:49;;;;;;;0.70;0.60;;;15.20;99.90;;;;;;5010681;28;20230;-54
2022/10/22 06:37:16;;;;;;;1.00;0.70;;;15.20;99.90;;;;;;5010223;28;20188;-55
2022/10/22 06:39:42;;;;;;;1.20;0.80;;;15.10;99.90;;;;;;5005798;28;20435;-60
2022/10/22 06:42:07;;;;;;;0.80;0.73;;;15.30;99.90;;;;;;5011192;28;20186;-61
2022/10/22 06:44:33;;;;;;;1.90;0.80;;;15.30;99.90;;;;;;5007458;28;20207;-56
2022/10/22 06:46:59;;;;;;;1.50;0.60;;;15.20;99.90;;;;;;5011527;28;20225;-62
2022/10/22 06:49:24;;;;;;;1.53;0.60;;;15.30;99.90;;;;;;5009066;28;20191;-59
2022/10/22 06:51:52;;;;;;;1.47;0.80;;;15.20;99.90;;;;;;5006149;28;20249;-59
2022/10/22 06:54:18;;;;;;;1.25;0.70;;;15.40;99.90;;;;;;5003666;28;20688;-56
2022/10/22 06:56:44;;;;;;;0.80;0.80;;;15.00;99.90;;;;;;5010331;28;20191;-56
2022/10/22 06:59:10;;;;;;;1.63;1.03;;;15.00;99.90;;;;;;5006302;28;20236;-54
2022/10/22 07:01:37;;;;;;;1.00;0.90;;;15.10;99.90;;;;;;5007529;28;20241;-57
2022/10/22 07:04:05;;;;;;;1.25;0.90;;;15.20;99.90;;;;;;5011108;28;20589;-53
2022/10/22 07:06:31;;;;;;;1.92;1.10;;;15.10;99.90;;;;;;5010430;28;20211;-53
2022/10/22 07:08:58;;;;;;;3.75;1.17;;;15.30;99.90;;;;;;5010552;28;20187;-54
2022/10/22 07:11:27;;;;;;;2.45;1.10;;;15.10;99.90;;;;;;5009762;28;20202;-54
2022/10/22 07:13:55;;;;;;;1.35;1.00;;;15.20;99.90;;;;;;5006339;28;20264;-54
2022/10/22 07:16:21;;;;;;;1.58;1.05;;;15.30;99.90;;;;;;4994738;28;20198;-55
2022/10/22 07:18:47;;;;;;;1.20;1.10;;;15.60;99.90;;;;;;5011621;28;20186;-54
2022/10/22 07:21:16;;;;;;;3.43;1.03;;;15.60;99.90;;;;;;5008029;28;20947;-54
2022/10/22 07:23:42;;;;;;;0.77;0.73;;;15.70;99.90;;;;;;5006587;28;20544;-54
2022/10/22 07:26:08;;;;;;;1.23;0.80;;;15.40;99.90;;;;;;5012511;28;20277;-54
2022/10/22 07:28:35;;;;;;;1.25;0.90;;;15.60;99.90;;;;;;5013229;28;20226;-54
2022/10/22 07:31:02;;;;;;;1.73;0.70;;;15.40;99.90;;;;;;5007737;28;20283;-53
2022/10/22 07:33:27;;;;;;;0.90;0.90;;;15.60;99.90;;;;;;5007675;28;20200;-54
2022/10/22 07:35:58;;;;;;;0.97;0.87;;;15.70;99.90;;;;;;4993488;28;20186;-54
2022/10/22 07:38:24;;;;;;;3.17;1.15;;;15.30;99.90;;;;;;5007328;28;20286;-52
2022/10/22 07:40:51;;;;;;;1.20;0.90;;;15.50;99.90;;;;;;5007551;28;20274;-54
2022/10/22 07:43:16;;;;;;;1.08;0.80;;;15.60;99.90;;;;;;5006529;28;20218;-54
2022/10/22 07:45:42;;;;;;;2.60;0.90;;;15.80;99.90;;;;;;5011488;28;20656;-53
2022/10/22 07:48:08;;;;;;;1.80;0.90;;;15.50;99.90;;;;;;5010662;28;20221;-54
2022/10/22 07:50:33;;;;;;;3.23;1.47;;;15.60;99.90;;;;;;5020432;28;20238;-54
2022/10/22 07:52:59;;;;;;;3.73;0.80;;;15.70;99.90;;;;;;5006503;28;20222;-54
2022/10/22 07:55:25;;;;;;;2.65;1.15;;;15.90;99.90;;;;;;5011832;28;20271;-54
2022/10/22 07:57:51;;;;;;;2.57;1.30;;;15.70;99.90;;;;;;5011092;28;20179;-54
2022/10/22 08:00:17;;;;;;;2.17;1.10;;;15.70;99.90;;;;;;5010299;28;20191;-54
2022/10/22 08:02:42;;;;;;;1.90;1.67;;;16.20;99.90;;;;;;5011255;28;20227;-55
2022/10/22 08:05:09;;;;;;;1.55;1.20;;;15.90;99.90;;;;;;5014351;28;20468;-55
2022/10/22 08:07:35;;;;;;;2.85;1.20;;;16.30;99.90;;;;;;5011914;28;20183;-55
2022/10/22 08:10:02;;;;;;;2.42;1.10;;;16.30;99.90;;;;;;5010060;28;20588;-54
2022/10/22 08:12:27;;;;;;;2.23;1.20;;;16.40;99.90;;;;;;5014936;28;20210;-55
2022/10/22 08:14:53;;;;;;;1.50;1.40;;;16.40;99.90;;;;;;5014393;28;20202;-55
2022/10/22 08:17:19;;;;;;;1.07;0.80;;;16.30;99.90;;;;;;5015266;28;20199;-54
2022/10/22 08:19:44;;;;;;;1.83;1.10;;;16.10;99.90;;;;;;5008318;28;20206;-54
2022/10/22 08:22:11;;;;;;;1.60;1.07;;;16.60;99.90;;;;;;5004342;28;20187;-54
2022/10/22 08:24:37;;;;;;;1.10;0.88;;;16.40;99.90;;;;;;5007992;28;20214;-55
2022/10/22 08:27:03;;;;;;;2.93;0.90;;;16.70;99.90;;;;;;5009562;28;20186;-54
2022/10/22 08:29:28;;;;;;;1.23;1.10;;;16.50;99.90;;;;;;5008164;28;20198;-54
2022/10/22 08:31:54;;;;;;;1.40;1.30;;;16.80;99.90;;;;;;5008536;28;20215;-54
2022/10/22 08:34:20;;;;;;;1.20;1.10;;;16.60;99.90;;;;;;5009710;28;20682;-54
2022/10/22 08:36:46;;;;;;;1.80;1.37;;;16.90;99.90;;;;;;5009243;28;20202;-54
2022/10/22 08:39:12;;;;;;;3.20;1.20;;;16.70;99.90;;;;;;5006761;28;20550;-55
2022/10/22 08:42:02;;;;;;;2.33;1.10;;;16.70;99.90;;;;;;5009835;28;20536;-54
2022/10/22 08:45:12;;;;;;;5.05;1.30;;;17.00;99.90;;;;;;5005958;28;20564;-54
2022/10/22 08:48:01;;;;;;;1.27;1.10;;;17.20;99.90;;;;;;4997939;28;20199;-54
2022/10/22 08:50:34;;;;;;;0.80;0.80;;;17.30;99.90;;;;;;4999943;28;20834;-54
2022/10/22 08:53:06;;;;;;;1.67;1.30;;;18.10;99.90;;;;;;5009143;28;20221;-54
2022/10/22 08:55:35;;;;;;;1.75;1.08;;;18.00;99.90;;;;;;5009379;28;20332;-54
2022/10/22 08:58:34;;;;;;;1.70;1.60;;;18.00;99.90;;;;;;5007882;28;20190;-54
2022/10/22 09:01:22;;;;;;;2.25;1.40;;;18.30;99.90;;;;;;5010778;28;20179;-54
2022/10/22 09:03:59;;;;;;;1.60;1.50;;;18.00;99.90;;;;;;5006035;28;20205;-55
2022/10/22 09:06:28;;;;;;;2.00;0.77;;;17.80;99.90;;;;;;5010644;28;20191;-54
2022/10/22 09:08:55;;;;;;;1.30;0.98;;;18.00;99.90;;;;;;5008119;28;20202;-55
2022/10/22 09:11:31;;;;;;;2.70;1.10;;;18.10;99.90;;;;;;5013972;28;20209;-54
2022/10/22 09:13:59;;;;;;;1.65;1.00;;;18.30;99.90;;;;;;5008279;28;20675;-54
2022/10/22 09:17:07;;;;;;;2.20;1.30;;;18.90;99.90;;;;;;5009590;28;20201;-54
2022/10/22 09:19:59;;;;;;;6.93;2.08;;;18.90;99.90;;;;;;5009329;28;21884;-54
2022/10/22 09:22:30;;;;;;;0.95;0.85;;;18.80;99.90;;;;;;5009184;28;20186;-54
2022/10/22 09:25:21;;;;;;;3.80;1.10;;;18.80;99.90;;;;;;5000692;28;20211;-54
2022/10/22 09:27:48;;;;;;;2.13;1.10;;;19.10;99.90;;;;;;5003657;28;20643;-54
2022/10/22 09:30:20;;;;;;;1.23;1.00;;;19.20;99.90;;;;;;5008169;28;20194;-52
2022/10/22 09:33:01;;;;;;;3.38;0.80;;;19.20;99.90;;;;;;5011955;28;20285;-52
2022/10/22 09:35:27;;;;;;;2.33;1.25;;;19.50;99.90;;;;;;5012428;28;20214;-53
2022/10/22 09:37:55;;;;;;;2.17;0.90;;;19.60;99.90;;;;;;5008882;28;20501;-52
2022/10/22 09:40:23;;;;;;;1.33;0.70;;;19.20;99.90;;;;;;5006185;28;20187;-53
2022/10/22 09:42:50;;;;;;;2.17;0.80;;;19.20;99.90;;;;;;4988611;28;20190;-53
2022/10/22 09:45:24;;;;;;;1.42;1.15;;;19.10;99.90;;;;;;5014624;28;20214;-52
2022/10/22 09:48:05;;;;;;;6.72;6.13;;;19.40;99.90;;;;;;5017416;28;20182;-52
2022/10/22 09:50:41;;;;;;;1.88;0.93;;;19.40;99.90;;;;;;5004398;28;20234;-53
2022/10/22 09:53:19;;;;;;;1.23;1.10;;;19.50;99.90;;;;;;5012041;28;20305;-53
2022/10/22 09:55:54;;;;;;;1.23;1.08;;;19.60;99.90;;;;;;5009643;28;20681;-53
2022/10/22 09:58:20;;;;;;;1.50;1.15;;;19.70;99.90;;;;;;4999893;28;20281;-53
2022/10/22 10:00:50;;;;;;;3.50;1.30;;;19.80;99.90;;;;;;5010487;28;20279;-54
2022/10/22 10:03:18;;;;;;;1.95;1.20;;;20.10;99.90;;;;;;5008913;28;20958;-59
2022/10/22 10:05:48;;;;;;;0.75;0.75;;;20.10;99.90;;;;;;5003602;28;20205;-56
2022/10/22 10:08:16;;;;;;;1.15;0.80;;;20.40;99.90;;;;;;5008235;28;20553;-55
2022/10/22 10:11:00;;;;;;;1.10;1.00;;;20.90;99.90;;;;;;5011383;28;20196;-55
2022/10/22 10:13:40;;;;;;;2.37;0.93;;;21.70;99.90;;;;;;5001596;28;20508;-56
2022/10/22 10:16:24;;;;;;;0.70;0.70;;;22.50;98.20;;;;;;5008128;28;21108;-56
2022/10/22 10:19:14;;;;;;;0.83;0.80;;;23.10;95.90;;;;;;5007916;28;20561;-56
2022/10/22 10:22:09;;;;;;;2.63;0.80;;;23.60;95.00;;;;;;5006307;28;20442;-56
2022/10/22 10:25:21;;;;;;;1.40;1.10;;;24.00;93.10;;;;;;5003068;28;20458;-54
2022/10/22 10:28:05;;;;;;;1.40;0.80;;;24.20;92.80;;;;;;4966744;28;20445;-55
2022/10/22 10:30:32;;;;;;;2.77;1.10;;;23.90;92.80;;;;;;5005804;28;20489;-55
2022/10/22 10:33:43;;;;;;;2.13;1.27;;;24.00;93.10;;;;;;5007311;28;20459;-54
2022/10/22 10:36:32;;;;;;;1.53;0.87;;;24.10;93.20;;;;;;5009090;28;20547;-54
2022/10/22 10:39:06;;;;;;;2.10;1.03;;;23.80;93.40;;;;;;5000770;28;20442;-55
2022/10/22 10:41:41;;;;;;;0.93;0.90;;;23.80;92.90;;;;;;5011132;28;20441;-55
2022/10/22 10:44:39;;;;;;;3.60;1.20;;;23.80;92.30;;;;;;5008672;28;20476;-56
2022/10/22 10:47:11;;;;;;;1.03;0.93;;;23.60;92.30;;;;;;5001933;28;20537;-55
2022/10/22 10:49:36;;;;;;;2.90;1.20;;;23.90;91.80;;;;;;5013829;28;20846;-55
2022/10/22 10:52:46;;;;;;;4.17;1.23;;;24.10;91.50;;;;;;5008506;28;20486;-55
2022/10/22 10:55:17;;;;;;;2.60;1.50;;;24.10;91.90;;;;;;4966007;28;20753;-55
2022/10/22 10:58:09;;;;;;;1.67;1.10;;;23.80;92.00;;;;;;5004218;28;20557;-55
2022/10/22 11:01:00;;;;;;;2.00;1.40;;;23.90;91.90;;;;;;5005869;28;20442;-55
2022/10/22 11:04:39;;;;;;;2.63;1.70;;;23.70;92.70;;;;;;5007666;28;20449;-55
2022/10/22 11:07:27;;;;;;;5.57;3.50;;;23.70;92.40;;;;;;4944858;28;20949;-55
2022/10/22 11:09:58;;;;;;;1.93;1.27;;;23.90;92.50;;;;;;5003225;28;20580;-55
2022/10/22 11:12:29;;;;;;;1.40;1.30;;;23.40;91.20;;;;;;5007623;28;20588;-55
2022/10/22 11:15:31;;;;;;;1.30;1.20;;;23.90;91.50;;;;;;5007453;28;20467;-55
2022/10/22 11:18:39;;;;;;;1.43;1.33;;;24.90;90.10;;;;;;5013808;28;20457;-55
2022/10/22 11:21:19;;;;;;;1.27;0.90;;;24.50;89.90;;;;;;5007419;28;20472;-55
2022/10/22 11:24:26;;;;;;;1.20;1.10;;;25.30;87.50;;;;;;5003889;28;20522;-56
2022/10/22 11:27:16;;;;;;;1.77;1.20;;;25.60;86.20;;;;;;5007085;28;20868;-56
2022/10/22 11:30:03;;;;;;;3.10;2.90;;;25.00;86.20;;;;;;5010481;28;20451;-56
2022/10/22 11:32:53;;;;;;;2.60;2.00;;;24.70;88.20;;;;;;5003869;28;20608;-60
2022/10/22 11:35:43;;;;;;;3.50;1.50;;;24.40;86.20;;;;;;5003278;28;20458;-57
2022/10/22 11:38:15;;;;;;;4.00;3.50;;;23.50;89.70;;;;;;5008608;28;20449;-57
2022/10/22 11:40:49;;;;;;;1.23;1.13;;;23.20;91.40;;;;;;5003643;28;20440;-58
2022/10/22 11:43:54;;;;;;;1.60;1.10;;;23.00;91.00;;;;;;5008277;28;20457;-59
2022/10/22 11:46:19;;;;;;;1.37;0.80;;;23.00;91.40;;;;;;5011619;28;20482;-61
2022/10/22 11:49:05;;;;;;;1.23;0.90;;;22.90;90.80;;;;;;5012940;28;20476;-58
2022/10/22 11:51:36;;;;;;;2.30;1.63;;;22.70;90.90;;;;;;5000447;28;20265;-59
2022/10/22 11:54:24;;;;;;;1.43;1.17;;;22.70;91.70;;;;;;5007634;28;20457;-58
2022/10/22 11:57:12;;;;;;;3.93;1.20;;;22.50;90.70;;;;;;5007639;28;20496;-58
2022/10/22 11:59:43;;;;;;;1.35;1.00;;;22.30;91.50;;;;;;5008773;28;20439;-58
2022/10/22 12:02:27;;;;;;;2.35;0.98;;;22.20;91.30;;;;;;5006552;28;20279;-58
2022/10/22 12:05:14;;;;;;;2.10;1.05;;;22.00;92.00;;;;;;5008276;28;20261;-58
2022/10/22 12:07:56;;;;;;;3.20;1.20;;;21.70;92.50;;;;;;5007270;28;20187;-58
2022/10/22 12:10:28;;;;;;;1.40;0.90;;;21.40;92.00;;;;;;5010037;28;20269;-58
2022/10/22 12:13:04;;;;;;;1.03;0.90;;;21.50;91.40;;;;;;5006354;28;20253;-58
2022/10/22 12:15:29;;;;;;;1.42;1.10;;;22.00;90.70;;;;;;5005127;28;20551;-59
2022/10/22 12:17:59;;;;;;;5.53;1.83;;;22.10;91.10;;;;;;5009419;28;20309;-58
2022/10/22 12:20:27;;;;;;;1.63;1.07;;;22.40;90.40;;;;;;5006021;28;20191;-59
2022/10/22 12:22:56;;;;;;;2.00;1.03;;;22.50;88.30;;;;;;5008965;28;20442;-58
2022/10/22 12:25:24;;;;;;;3.53;1.48;;;22.50;88.50;;;;;;5008817;28;20524;-58
2022/10/22 12:27:56;;;;;;;4.63;0.95;;;22.30;89.00;;;;;;5004855;28;20265;-59
2022/10/22 12:30:33;;;;;;;2.28;1.17;;;22.20;90.10;;;;;;5006310;28;20334;-59
2022/10/22 12:33:01;;;;;;;1.70;1.23;;;22.00;91.10;;;;;;5008333;28;20213;-59
2022/10/22 12:35:34;;;;;;;4.35;1.48;;;21.90;90.60;;;;;;4993077;28;20199;-58
2022/10/22 12:38:02;;;;;;;3.45;1.58;;;21.80;90.20;;;;;;5006218;28;20220;-59
2022/10/22 12:40:32;;;;;;;3.20;1.05;;;21.60;91.80;;;;;;5009620;28;20179;-59
2022/10/22 12:43:10;;;;;;;5.03;1.27;;;21.60;91.50;;;;;;5005904;28;20206;-58
2022/10/22 12:45:36;;;;;;;2.00;1.30;;;21.50;91.90;;;;;;5008412;28;20465;-58
2022/10/22 12:48:06;;;;;;;2.35;1.20;;;21.50;91.10;;;;;;5004065;28;20186;-59
2022/10/22 12:50:41;;;;;;;1.42;1.00;;;21.60;91.10;;;;;;5004882;28;20184;-58
2022/10/22 12:53:21;;;;;;;1.42;0.98;;;21.50;90.40;;;;;;5010564;28;20213;-58
2022/10/22 12:55:50;;;;;;;3.03;1.17;;;21.40;90.60;;;;;;5009576;28;20190;-58
2022/10/22 12:58:20;;;;;;;3.03;1.00;;;21.40;91.20;;;;;;5007035;28;20183;-59
2022/10/22 13:00:47;;;;;;;2.95;1.15;;;21.40;90.10;;;;;;5002283;28;20539;-58
2022/10/22 13:03:26;;;;;;;2.15;1.45;;;21.40;90.20;;;;;;4985013;28;20612;-59
2022/10/22 13:05:52;;;;;;;2.33;1.35;;;21.40;90.30;;;;;;5001005;28;20301;-58
2022/10/22 13:08:21;;;;;;;2.60;1.47;;;21.30;91.50;;;;;;5006999;28;20684;-55
2022/10/22 13:10:53;;;;;;;4.70;2.50;;;21.50;90.80;;;;;;5018151;28;20186;-55
2022/10/22 13:13:47;;;;;;;2.53;0.93;;;21.50;90.50;;;;;;5005029;28;20199;-54